sensor_id;sensor_type;location;lat;lon;timestamp;P1;durP1;ratioP1;P2;durP2;ratioP2
4049;SDS011;2039;50.894;6.888;2023-03-26T00:01:01;75.38;;;6.65;;
4049;SDS011;2039;50.894;6.888;2023-03-26T00:03:30;78.88;;;7.13;;
4049;SDS011;2039;50.894;6.888;2023-03-26T00:06:01;73.50;;;5.90;;
4049;SDS011;2039;50.894;6.888;2023-03-26T00:08:35;82.93;;;6.57;;
4049;SDS011;2039;50.894;6.888;2023-03-26T00:11:03;72.55;;;7.03;;
4049;SDS011;2039;50.894;6.888;2023-03-26T00:13:33;75.63;;;6.43;;
4049;SDS011;2039;50.894;6.888;2023-03-26T00:16:04;73.45;;;6.88;;
4049;SDS011;2039;50.894;6.888;2023-03-26T00:18:30;75.63;;;5.75;;
4049;SDS011;2039;50.894;6.888;2023-03-26T00:21:03;77.63;;;7.35;;
4049;SDS011;2039;50.894;6.888;2023-03-26T00:23:32;78.43;;;6.68;;
4049;SDS011;2039;50.894;6.888;2023-03-26T00:25:59;73.15;;;7.43;;
4049;SDS011;2039;50.894;6.888;2023-03-26T00:28:27;73.53;;;7.03;;
4049;SDS011;2039;50.894;6.888;2023-03-26T00:30:57;79.97;;;6.57;;
4049;SDS011;2039;50.894;6.888;2023-03-26T00:33:25;80.15;;;7.13;;
4049;SDS011;2039;50.894;6.888;2023-03-26T00:35:55;85.47;;;7.68;;
4049;SDS011;2039;50.894;6.888;2023-03-26T00:38:25;84.20;;;8.80;;
4049;SDS011;2039;50.894;6.888;2023-03-26T00:40:57;81.70;;;7.07;;
4049;SDS011;2039;50.894;6.888;2023-03-26T00:43:30;73.75;;;6.95;;
4049;SDS011;2039;50.894;6.888;2023-03-26T00:45:58;78.43;;;6.88;;
4049;SDS011;2039;50.894;6.888;2023-03-26T00:48:24;83.30;;;7.18;;
4049;SDS011;2039;50.894;6.888;2023-03-26T00:51:08;77.25;;;6.68;;
4049;SDS011;2039;50.894;6.888;2023-03-26T00:53:35;76.70;;;7.38;;
4049;SDS011;2039;50.894;6.888;2023-03-26T00:56:05;75.90;;;6.80;;
4049;SDS011;2039;50.894;6.888;2023-03-26T00:58:31;73.22;;;7.40;;
4049;SDS011;2039;50.894;6.888;2023-03-26T01:01:01;73.07;;;8.18;;
4049;SDS011;2039;50.894;6.888;2023-03-26T01:03:31;83.15;;;8.15;;
4049;SDS011;2039;50.894;6.888;2023-03-26T01:06:12;77.30;;;8.38;;
4049;SDS011;2039;50.894;6.888;2023-03-26T01:08:49;79.18;;;8.80;;
4049;SDS011;2039;50.894;6.888;2023-03-26T01:11:19;84.90;;;8.93;;
4049;SDS011;2039;50.894;6.888;2023-03-26T01:13:50;74.65;;;9.20;;
4049;SDS011;2039;50.894;6.888;2023-03-26T01:16:25;73.55;;;8.15;;
4049;SDS011;2039;50.894;6.888;2023-03-26T01:18:53;71.28;;;7.90;;
4049;SDS011;2039;50.894;6.888;2023-03-26T01:21:23;73.13;;;7.63;;
4049;SDS011;2039;50.894;6.888;2023-03-26T01:24:01;75.53;;;7.40;;
4049;SDS011;2039;50.894;6.888;2023-03-26T01:29:30;73.75;;;7.88;;
4049;SDS011;2039;50.894;6.888;2023-03-26T01:37:40;71.03;;;10.73;;
4049;SDS011;2039;50.894;6.888;2023-03-26T01:40:35;73.65;;;12.80;;
4049;SDS011;2039;50.894;6.888;2023-03-26T01:45:59;80.95;;;16.92;;
4049;SDS011;2039;50.894;6.888;2023-03-26T01:48:29;79.82;;;18.15;;
4049;SDS011;2039;50.894;6.888;2023-03-26T01:51:03;76.30;;;17.00;;
4049;SDS011;2039;50.894;6.888;2023-03-26T01:53:30;79.80;;;19.65;;
4049;SDS011;2039;50.894;6.888;2023-03-26T01:58:44;87.63;;;21.15;;
4049;SDS011;2039;50.894;6.888;2023-03-26T02:01:25;82.53;;;20.23;;
4049;SDS011;2039;50.894;6.888;2023-03-26T02:04:18;87.35;;;21.00;;
4049;SDS011;2039;50.894;6.888;2023-03-26T02:06:52;76.00;;;18.55;;
4049;SDS011;2039;50.894;6.888;2023-03-26T02:09:34;82.05;;;21.08;;
4049;SDS011;2039;50.894;6.888;2023-03-26T02:12:03;82.93;;;18.50;;
4049;SDS011;2039;50.894;6.888;2023-03-26T02:14:32;82.65;;;21.40;;
4049;SDS011;2039;50.894;6.888;2023-03-26T02:16:58;81.18;;;22.08;;
4049;SDS011;2039;50.894;6.888;2023-03-26T02:19:24;84.38;;;24.48;;
4049;SDS011;2039;50.894;6.888;2023-03-26T02:21:50;77.43;;;20.47;;
4049;SDS011;2039;50.894;6.888;2023-03-26T02:24:17;75.20;;;19.77;;
4049;SDS011;2039;50.894;6.888;2023-03-26T02:26:43;77.35;;;18.27;;
4049;SDS011;2039;50.894;6.888;2023-03-26T02:29:10;79.75;;;23.25;;
4049;SDS011;2039;50.894;6.888;2023-03-26T02:31:43;85.20;;;22.88;;
4049;SDS011;2039;50.894;6.888;2023-03-26T02:34:09;78.30;;;21.23;;
4049;SDS011;2039;50.894;6.888;2023-03-26T02:36:34;81.20;;;20.77;;
4049;SDS011;2039;50.894;6.888;2023-03-26T02:39:00;77.27;;;23.97;;
4049;SDS011;2039;50.894;6.888;2023-03-26T02:41:27;80.10;;;23.67;;
4049;SDS011;2039;50.894;6.888;2023-03-26T02:43:52;82.87;;;21.33;;
4049;SDS011;2039;50.894;6.888;2023-03-26T02:46:18;83.20;;;22.57;;
4049;SDS011;2039;50.894;6.888;2023-03-26T02:48:44;80.10;;;23.53;;
4049;SDS011;2039;50.894;6.888;2023-03-26T02:51:10;84.07;;;22.93;;
4049;SDS011;2039;50.894;6.888;2023-03-26T02:53:35;82.47;;;22.93;;
4049;SDS011;2039;50.894;6.888;2023-03-26T02:56:03;80.10;;;27.90;;
4049;SDS011;2039;50.894;6.888;2023-03-26T02:58:29;79.63;;;22.15;;
4049;SDS011;2039;50.894;6.888;2023-03-26T03:00:55;79.80;;;22.90;;
4049;SDS011;2039;50.894;6.888;2023-03-26T03:03:24;78.73;;;22.73;;
4049;SDS011;2039;50.894;6.888;2023-03-26T03:05:51;80.85;;;22.88;;
4049;SDS011;2039;50.894;6.888;2023-03-26T03:08:18;81.20;;;22.05;;
4049;SDS011;2039;50.894;6.888;2023-03-26T03:11:28;79.45;;;21.45;;
4049;SDS011;2039;50.894;6.888;2023-03-26T03:13:36;79.90;;;20.13;;
4049;SDS011;2039;50.894;6.888;2023-03-26T03:16:02;86.50;;;22.77;;
4049;SDS011;2039;50.894;6.888;2023-03-26T03:18:27;79.50;;;24.47;;
4049;SDS011;2039;50.894;6.888;2023-03-26T03:20:53;76.80;;;21.90;;
4049;SDS011;2039;50.894;6.888;2023-03-26T03:23:19;78.90;;;23.03;;
4049;SDS011;2039;50.894;6.888;2023-03-26T03:25:45;77.90;;;23.03;;
4049;SDS011;2039;50.894;6.888;2023-03-26T03:28:11;78.43;;;20.53;;
4049;SDS011;2039;50.894;6.888;2023-03-26T03:30:37;82.65;;;23.63;;
4049;SDS011;2039;50.894;6.888;2023-03-26T03:33:04;82.03;;;24.30;;
4049;SDS011;2039;50.894;6.888;2023-03-26T03:35:30;78.60;;;22.00;;
4049;SDS011;2039;50.894;6.888;2023-03-26T03:37:57;78.80;;;25.10;;
4049;SDS011;2039;50.894;6.888;2023-03-26T03:40:24;83.88;;;23.77;;
4049;SDS011;2039;50.894;6.888;2023-03-26T03:42:53;77.63;;;23.38;;
4049;SDS011;2039;50.894;6.888;2023-03-26T03:45:19;74.90;;;22.30;;
4049;SDS011;2039;50.894;6.888;2023-03-26T03:47:45;80.43;;;23.23;;
4049;SDS011;2039;50.894;6.888;2023-03-26T03:50:10;73.67;;;22.70;;
4049;SDS011;2039;50.894;6.888;2023-03-26T03:52:36;73.70;;;20.60;;
4049;SDS011;2039;50.894;6.888;2023-03-26T03:55:02;84.37;;;19.30;;
4049;SDS011;2039;50.894;6.888;2023-03-26T03:57:28;84.38;;;18.95;;
4049;SDS011;2039;50.894;6.888;2023-03-26T03:59:55;74.90;;;20.60;;
4049;SDS011;2039;50.894;6.888;2023-03-26T04:02:24;77.32;;;21.60;;
4049;SDS011;2039;50.894;6.888;2023-03-26T04:04:54;85.07;;;21.40;;
4049;SDS011;2039;50.894;6.888;2023-03-26T04:07:21;82.93;;;23.20;;
4049;SDS011;2039;50.894;6.888;2023-03-26T04:09:48;81.93;;;20.75;;
4049;SDS011;2039;50.894;6.888;2023-03-26T04:12:14;80.67;;;22.07;;
4049;SDS011;2039;50.894;6.888;2023-03-26T04:14:40;76.90;;;22.47;;
4049;SDS011;2039;50.894;6.888;2023-03-26T04:17:06;81.18;;;20.08;;
4049;SDS011;2039;50.894;6.888;2023-03-26T04:19:35;78.77;;;18.90;;
4049;SDS011;2039;50.894;6.888;2023-03-26T04:22:01;74.68;;;16.63;;
4049;SDS011;2039;50.894;6.888;2023-03-26T04:24:27;76.87;;;13.30;;
4049;SDS011;2039;50.894;6.888;2023-03-26T04:26:55;73.07;;;12.40;;
4049;SDS011;2039;50.894;6.888;2023-03-26T04:29:22;75.55;;;12.20;;
4049;SDS011;2039;50.894;6.888;2023-03-26T04:31:55;76.93;;;11.27;;
4049;SDS011;2039;50.894;6.888;2023-03-26T04:34:31;70.85;;;10.30;;
4049;SDS011;2039;50.894;6.888;2023-03-26T04:36:59;69.88;;;10.32;;
4049;SDS011;2039;50.894;6.888;2023-03-26T04:39:26;70.43;;;8.95;;
4049;SDS011;2039;50.894;6.888;2023-03-26T04:41:53;80.07;;;12.10;;
4049;SDS011;2039;50.894;6.888;2023-03-26T04:44:19;76.65;;;11.80;;
4049;SDS011;2039;50.894;6.888;2023-03-26T04:46:46;74.97;;;9.25;;
4049;SDS011;2039;50.894;6.888;2023-03-26T04:49:17;81.95;;;9.25;;
4049;SDS011;2039;50.894;6.888;2023-03-26T04:51:43;86.85;;;9.88;;
4049;SDS011;2039;50.894;6.888;2023-03-26T04:54:11;78.82;;;8.77;;
4049;SDS011;2039;50.894;6.888;2023-03-26T04:59:14;72.18;;;8.15;;
4049;SDS011;2039;50.894;6.888;2023-03-26T05:01:43;69.68;;;7.80;;
4049;SDS011;2039;50.894;6.888;2023-03-26T05:04:10;74.88;;;9.05;;
4049;SDS011;2039;50.894;6.888;2023-03-26T05:06:37;79.43;;;9.80;;
4049;SDS011;2039;50.894;6.888;2023-03-26T05:09:06;74.78;;;9.23;;
4049;SDS011;2039;50.894;6.888;2023-03-26T05:11:34;70.63;;;8.57;;
4049;SDS011;2039;50.894;6.888;2023-03-26T05:14:00;77.40;;;9.45;;
4049;SDS011;2039;50.894;6.888;2023-03-26T05:16:27;76.50;;;8.82;;
4049;SDS011;2039;50.894;6.888;2023-03-26T05:18:52;79.00;;;9.07;;
4049;SDS011;2039;50.894;6.888;2023-03-26T05:21:18;68.20;;;7.67;;
4049;SDS011;2039;50.894;6.888;2023-03-26T05:23:45;71.30;;;8.40;;
4049;SDS011;2039;50.894;6.888;2023-03-26T05:26:10;73.40;;;7.97;;
4049;SDS011;2039;50.894;6.888;2023-03-26T05:28:36;77.57;;;9.70;;
4049;SDS011;2039;50.894;6.888;2023-03-26T05:31:02;82.03;;;8.27;;
4049;SDS011;2039;50.894;6.888;2023-03-26T05:33:28;78.57;;;10.65;;
4049;SDS011;2039;50.894;6.888;2023-03-26T05:35:58;76.83;;;8.17;;
4049;SDS011;2039;50.894;6.888;2023-03-26T05:38:32;79.13;;;10.52;;
4049;SDS011;2039;50.894;6.888;2023-03-26T05:41:05;71.72;;;9.52;;
4049;SDS011;2039;50.894;6.888;2023-03-26T05:43:31;76.93;;;10.25;;
4049;SDS011;2039;50.894;6.888;2023-03-26T05:45:57;74.13;;;12.35;;
4049;SDS011;2039;50.894;6.888;2023-03-26T05:48:23;71.97;;;13.30;;
4049;SDS011;2039;50.894;6.888;2023-03-26T05:50:51;72.82;;;15.38;;
4049;SDS011;2039;50.894;6.888;2023-03-26T05:53:18;76.10;;;18.30;;
4049;SDS011;2039;50.894;6.888;2023-03-26T05:55:45;74.75;;;21.25;;
4049;SDS011;2039;50.894;6.888;2023-03-26T05:58:14;75.85;;;22.27;;
4049;SDS011;2039;50.894;6.888;2023-03-26T06:00:41;83.40;;;20.83;;
4049;SDS011;2039;50.894;6.888;2023-03-26T06:03:07;75.20;;;19.55;;
4049;SDS011;2039;50.894;6.888;2023-03-26T06:05:36;77.28;;;19.08;;
4049;SDS011;2039;50.894;6.888;2023-03-26T06:08:03;76.68;;;18.85;;
4049;SDS011;2039;50.894;6.888;2023-03-26T06:10:29;77.10;;;18.25;;
4049;SDS011;2039;50.894;6.888;2023-03-26T06:12:55;79.03;;;18.45;;
4049;SDS011;2039;50.894;6.888;2023-03-26T06:15:21;75.50;;;16.90;;
4049;SDS011;2039;50.894;6.888;2023-03-26T06:17:47;73.90;;;17.88;;
4049;SDS011;2039;50.894;6.888;2023-03-26T06:20:13;75.67;;;19.20;;
4049;SDS011;2039;50.894;6.888;2023-03-26T06:22:39;75.85;;;17.00;;
4049;SDS011;2039;50.894;6.888;2023-03-26T06:25:05;79.15;;;20.40;;
4049;SDS011;2039;50.894;6.888;2023-03-26T06:27:31;76.25;;;17.73;;
4049;SDS011;2039;50.894;6.888;2023-03-26T06:29:57;77.10;;;18.03;;
4049;SDS011;2039;50.894;6.888;2023-03-26T06:32:23;79.57;;;17.83;;
4049;SDS011;2039;50.894;6.888;2023-03-26T06:34:48;76.50;;;13.80;;
4049;SDS011;2039;50.894;6.888;2023-03-26T06:37:14;79.17;;;13.93;;
4049;SDS011;2039;50.894;6.888;2023-03-26T06:39:40;85.65;;;13.30;;
4049;SDS011;2039;50.894;6.888;2023-03-26T06:42:06;80.13;;;11.53;;
4049;SDS011;2039;50.894;6.888;2023-03-26T06:44:32;71.90;;;11.50;;
4049;SDS011;2039;50.894;6.888;2023-03-26T06:46:58;73.73;;;11.70;;
4049;SDS011;2039;50.894;6.888;2023-03-26T06:49:24;75.83;;;12.10;;
4049;SDS011;2039;50.894;6.888;2023-03-26T06:51:50;81.47;;;12.10;;
4049;SDS011;2039;50.894;6.888;2023-03-26T06:54:16;77.87;;;11.20;;
4049;SDS011;2039;50.894;6.888;2023-03-26T06:56:41;81.63;;;10.80;;
4049;SDS011;2039;50.894;6.888;2023-03-26T06:59:07;79.50;;;13.23;;
4049;SDS011;2039;50.894;6.888;2023-03-26T07:01:33;85.28;;;14.90;;
4049;SDS011;2039;50.894;6.888;2023-03-26T07:03:59;77.73;;;13.80;;
4049;SDS011;2039;50.894;6.888;2023-03-26T07:06:25;80.43;;;19.00;;
4049;SDS011;2039;50.894;6.888;2023-03-26T07:08:50;77.80;;;18.77;;
4049;SDS011;2039;50.894;6.888;2023-03-26T07:11:16;75.53;;;16.90;;
4049;SDS011;2039;50.894;6.888;2023-03-26T07:13:43;75.13;;;20.05;;
4049;SDS011;2039;50.894;6.888;2023-03-26T07:16:11;85.47;;;15.45;;
4049;SDS011;2039;50.894;6.888;2023-03-26T07:18:38;79.50;;;13.00;;
4049;SDS011;2039;50.894;6.888;2023-03-26T07:21:03;79.53;;;12.80;;
4049;SDS011;2039;50.894;6.888;2023-03-26T07:23:30;77.90;;;14.38;;
4049;SDS011;2039;50.894;6.888;2023-03-26T07:25:55;77.87;;;13.10;;
4049;SDS011;2039;50.894;6.888;2023-03-26T07:41:26;76.10;;;14.63;;
4049;SDS011;2039;50.894;6.888;2023-03-26T07:44:01;79.55;;;15.30;;
4049;SDS011;2039;50.894;6.888;2023-03-26T07:46:30;72.68;;;13.93;;
4049;SDS011;2039;50.894;6.888;2023-03-26T07:48:59;73.93;;;14.93;;
4049;SDS011;2039;50.894;6.888;2023-03-26T07:51:26;74.70;;;14.65;;
4049;SDS011;2039;50.894;6.888;2023-03-26T07:53:53;78.10;;;14.13;;
4049;SDS011;2039;50.894;6.888;2023-03-26T08:04:46;81.97;;;16.65;;
4049;SDS011;2039;50.894;6.888;2023-03-26T08:09:55;71.67;;;13.77;;
4049;SDS011;2039;50.894;6.888;2023-03-26T08:21:10;77.78;;;12.80;;
4049;SDS011;2039;50.894;6.888;2023-03-26T08:26:41;72.47;;;15.77;;
4049;SDS011;2039;50.894;6.888;2023-03-26T08:31:49;76.57;;;15.80;;
4049;SDS011;2039;50.894;6.888;2023-03-26T08:34:16;76.72;;;18.50;;
4049;SDS011;2039;50.894;6.888;2023-03-26T08:36:41;74.95;;;18.13;;
4049;SDS011;2039;50.894;6.888;2023-03-26T08:39:07;73.80;;;15.53;;
4049;SDS011;2039;50.894;6.888;2023-03-26T08:50:29;68.95;;;12.50;;
4049;SDS011;2039;50.894;6.888;2023-03-26T08:56:04;71.25;;;14.98;;
4049;SDS011;2039;50.894;6.888;2023-03-26T09:12:40;86.07;;;16.83;;
4049;SDS011;2039;50.894;6.888;2023-03-26T09:38:10;73.00;;;15.38;;
4049;SDS011;2039;50.894;6.888;2023-03-26T09:40:57;74.72;;;15.75;;
4049;SDS011;2039;50.894;6.888;2023-03-26T09:43:35;69.88;;;17.67;;
4049;SDS011;2039;50.894;6.888;2023-03-26T09:55:12;74.97;;;25.52;;
4049;SDS011;2039;50.894;6.888;2023-03-26T10:14:31;77.07;;;24.55;;
4049;SDS011;2039;50.894;6.888;2023-03-26T10:26:22;73.43;;;21.95;;
4049;SDS011;2039;50.894;6.888;2023-03-26T10:58:59;70.22;;;17.52;;
4049;SDS011;2039;50.894;6.888;2023-03-26T11:01:40;79.63;;;22.98;;
4049;SDS011;2039;50.894;6.888;2023-03-26T11:06:52;77.05;;;19.27;;
4049;SDS011;2039;50.894;6.888;2023-03-26T11:10:06;72.00;;;17.23;;
4049;SDS011;2039;50.894;6.888;2023-03-26T11:12:51;72.32;;;17.00;;
4049;SDS011;2039;50.894;6.888;2023-03-26T11:15:37;72.28;;;16.80;;
4049;SDS011;2039;50.894;6.888;2023-03-26T11:18:29;80.55;;;15.35;;
4049;SDS011;2039;50.894;6.888;2023-03-26T11:21:22;72.05;;;15.07;;
4049;SDS011;2039;50.894;6.888;2023-03-26T11:24:25;73.00;;;19.33;;
4049;SDS011;2039;50.894;6.888;2023-03-26T11:27:15;71.60;;;17.17;;
4049;SDS011;2039;50.894;6.888;2023-03-26T11:29:54;72.85;;;17.23;;
4049;SDS011;2039;50.894;6.888;2023-03-26T11:32:43;70.75;;;14.80;;
4049;SDS011;2039;50.894;6.888;2023-03-26T11:35:25;72.57;;;21.75;;
4049;SDS011;2039;50.894;6.888;2023-03-26T11:38:01;74.95;;;22.02;;
4049;SDS011;2039;50.894;6.888;2023-03-26T11:40:35;72.72;;;18.75;;
4049;SDS011;2039;50.894;6.888;2023-03-26T11:43:06;72.70;;;20.05;;
4049;SDS011;2039;50.894;6.888;2023-03-26T11:45:35;72.82;;;18.13;;
4049;SDS011;2039;50.894;6.888;2023-03-26T11:48:13;72.60;;;20.48;;
4049;SDS011;2039;50.894;6.888;2023-03-26T11:51:10;72.80;;;19.27;;
4049;SDS011;2039;50.894;6.888;2023-03-26T11:53:42;71.68;;;18.48;;
4049;SDS011;2039;50.894;6.888;2023-03-26T11:59:10;71.22;;;16.65;;
4049;SDS011;2039;50.894;6.888;2023-03-26T12:04:38;72.43;;;17.75;;
4049;SDS011;2039;50.894;6.888;2023-03-26T12:10:29;72.38;;;19.40;;
4049;SDS011;2039;50.894;6.888;2023-03-26T12:13:05;74.45;;;19.77;;
4049;SDS011;2039;50.894;6.888;2023-03-26T12:15:56;71.85;;;21.88;;
4049;SDS011;2039;50.894;6.888;2023-03-26T12:18:26;72.47;;;21.10;;
4049;SDS011;2039;50.894;6.888;2023-03-26T12:21:15;70.60;;;16.35;;
4049;SDS011;2039;50.894;6.888;2023-03-26T12:26:38;68.80;;;9.98;;
4049;SDS011;2039;50.894;6.888;2023-03-26T12:29:11;67.90;;;9.75;;
4049;SDS011;2039;50.894;6.888;2023-03-26T12:31:47;74.60;;;10.55;;
4049;SDS011;2039;50.894;6.888;2023-03-26T12:34:40;67.63;;;6.60;;
4049;SDS011;2039;50.894;6.888;2023-03-26T12:37:07;64.60;;;4.60;;
4049;SDS011;2039;50.894;6.888;2023-03-26T12:40:05;64.88;;;6.55;;
4049;SDS011;2039;50.894;6.888;2023-03-26T12:42:51;64.18;;;4.72;;
4049;SDS011;2039;50.894;6.888;2023-03-26T12:45:19;64.82;;;6.32;;
4049;SDS011;2039;50.894;6.888;2023-03-26T12:48:00;65.20;;;6.95;;
4049;SDS011;2039;50.894;6.888;2023-03-26T12:50:29;64.13;;;5.05;;
4049;SDS011;2039;50.894;6.888;2023-03-26T12:55:53;65.72;;;6.15;;
4049;SDS011;2039;50.894;6.888;2023-03-26T13:06:43;64.43;;;6.00;;
4049;SDS011;2039;50.894;6.888;2023-03-26T13:09:31;65.53;;;6.80;;
4049;SDS011;2039;50.894;6.888;2023-03-26T13:14:56;65.45;;;7.57;;
4049;SDS011;2039;50.894;6.888;2023-03-26T13:20:10;65.90;;;8.63;;
4049;SDS011;2039;50.894;6.888;2023-03-26T13:25:37;67.05;;;12.90;;
4049;SDS011;2039;50.894;6.888;2023-03-26T13:28:15;68.38;;;12.30;;
4049;SDS011;2039;50.894;6.888;2023-03-26T13:31:06;68.60;;;13.75;;
4049;SDS011;2039;50.894;6.888;2023-03-26T13:34:16;67.07;;;10.20;;
4049;SDS011;2039;50.894;6.888;2023-03-26T13:47:49;65.82;;;6.25;;
4049;SDS011;2039;50.894;6.888;2023-03-26T13:50:37;70.32;;;9.10;;
4049;SDS011;2039;50.894;6.888;2023-03-26T13:55:54;67.55;;;8.23;;
4049;SDS011;2039;50.894;6.888;2023-03-26T13:58:40;67.68;;;7.55;;
4049;SDS011;2039;50.894;6.888;2023-03-26T14:03:57;72.88;;;12.10;;
4049;SDS011;2039;50.894;6.888;2023-03-26T14:09:23;75.43;;;22.20;;
4049;SDS011;2039;50.894;6.888;2023-03-26T14:12:27;72.88;;;19.15;;
4049;SDS011;2039;50.894;6.888;2023-03-26T14:18:24;72.47;;;20.17;;
4049;SDS011;2039;50.894;6.888;2023-03-26T14:24:11;72.63;;;20.20;;
4049;SDS011;2039;50.894;6.888;2023-03-26T14:26:56;74.05;;;19.45;;
4049;SDS011;2039;50.894;6.888;2023-03-26T14:29:45;72.45;;;21.00;;
4049;SDS011;2039;50.894;6.888;2023-03-26T14:38:03;73.70;;;23.00;;
4049;SDS011;2039;50.894;6.888;2023-03-26T14:54:22;71.32;;;11.00;;
4049;SDS011;2039;50.894;6.888;2023-03-26T14:56:52;68.32;;;9.50;;
4049;SDS011;2039;50.894;6.888;2023-03-26T15:05:25;69.72;;;13.02;;
4049;SDS011;2039;50.894;6.888;2023-03-26T15:11:16;71.00;;;13.18;;
4049;SDS011;2039;50.894;6.888;2023-03-26T15:14:00;67.93;;;11.07;;
4049;SDS011;2039;50.894;6.888;2023-03-26T15:16:44;66.93;;;9.38;;
4049;SDS011;2039;50.894;6.888;2023-03-26T15:22:27;67.75;;;6.65;;
4049;SDS011;2039;50.894;6.888;2023-03-26T15:28:52;66.40;;;6.85;;
4049;SDS011;2039;50.894;6.888;2023-03-26T15:48:05;71.75;;;12.65;;
4049;SDS011;2039;50.894;6.888;2023-03-26T15:56:19;66.47;;;9.15;;
4049;SDS011;2039;50.894;6.888;2023-03-26T16:04:51;66.90;;;9.45;;
4049;SDS011;2039;50.894;6.888;2023-03-26T16:15:38;66.50;;;8.05;;
4049;SDS011;2039;50.894;6.888;2023-03-26T16:20:54;69.90;;;10.52;;
4049;SDS011;2039;50.894;6.888;2023-03-26T16:23:26;70.28;;;12.60;;
4049;SDS011;2039;50.894;6.888;2023-03-26T16:25:57;66.57;;;9.60;;
4049;SDS011;2039;50.894;6.888;2023-03-26T16:28:36;68.45;;;11.75;;
4049;SDS011;2039;50.894;6.888;2023-03-26T16:34:44;66.95;;;8.88;;
4049;SDS011;2039;50.894;6.888;2023-03-26T16:45:42;66.57;;;9.80;;
4049;SDS011;2039;50.894;6.888;2023-03-26T16:51:19;86.88;;;19.73;;
4049;SDS011;2039;50.894;6.888;2023-03-26T16:57:03;69.10;;;11.93;;
4049;SDS011;2039;50.894;6.888;2023-03-26T17:08:24;67.78;;;10.48;;
4049;SDS011;2039;50.894;6.888;2023-03-26T17:11:18;68.88;;;12.68;;
4049;SDS011;2039;50.894;6.888;2023-03-26T17:14:09;67.68;;;14.25;;
4049;SDS011;2039;50.894;6.888;2023-03-26T17:22:28;69.43;;;12.43;;
4049;SDS011;2039;50.894;6.888;2023-03-26T17:25:51;71.97;;;17.00;;
4049;SDS011;2039;50.894;6.888;2023-03-26T17:33:36;69.90;;;15.93;;
4049;SDS011;2039;50.894;6.888;2023-03-26T17:41:13;68.87;;;16.27;;
4049;SDS011;2039;50.894;6.888;2023-03-26T17:44:05;69.85;;;17.40;;
4049;SDS011;2039;50.894;6.888;2023-03-26T17:47:00;70.85;;;18.92;;
4049;SDS011;2039;50.894;6.888;2023-03-26T17:49:27;72.45;;;19.40;;
4049;SDS011;2039;50.894;6.888;2023-03-26T17:54:50;68.95;;;16.75;;
4049;SDS011;2039;50.894;6.888;2023-03-26T17:59:46;69.82;;;16.55;;
4049;SDS011;2039;50.894;6.888;2023-03-26T18:02:20;71.20;;;18.10;;
4049;SDS011;2039;50.894;6.888;2023-03-26T18:04:55;69.90;;;16.45;;
4049;SDS011;2039;50.894;6.888;2023-03-26T18:18:42;75.78;;;14.98;;
4049;SDS011;2039;50.894;6.888;2023-03-26T18:21:10;73.35;;;18.35;;
4049;SDS011;2039;50.894;6.888;2023-03-26T18:23:43;76.75;;;17.48;;
4049;SDS011;2039;50.894;6.888;2023-03-26T18:29:07;78.53;;;19.75;;
4049;SDS011;2039;50.894;6.888;2023-03-26T18:31:34;83.78;;;20.77;;
4049;SDS011;2039;50.894;6.888;2023-03-26T18:34:05;79.40;;;17.15;;
4049;SDS011;2039;50.894;6.888;2023-03-26T18:36:37;74.43;;;17.15;;
4049;SDS011;2039;50.894;6.888;2023-03-26T18:39:04;78.90;;;18.00;;
4049;SDS011;2039;50.894;6.888;2023-03-26T18:41:37;78.88;;;18.35;;
4049;SDS011;2039;50.894;6.888;2023-03-26T18:44:15;80.75;;;22.80;;
4049;SDS011;2039;50.894;6.888;2023-03-26T18:46:42;81.45;;;22.42;;
4049;SDS011;2039;50.894;6.888;2023-03-26T18:49:12;79.70;;;20.88;;
4049;SDS011;2039;50.894;6.888;2023-03-26T18:51:42;81.63;;;20.50;;
4049;SDS011;2039;50.894;6.888;2023-03-26T18:54:10;77.28;;;21.02;;
4049;SDS011;2039;50.894;6.888;2023-03-26T18:56:41;82.72;;;20.83;;
4049;SDS011;2039;50.894;6.888;2023-03-26T19:01:52;79.28;;;20.63;;
4049;SDS011;2039;50.894;6.888;2023-03-26T19:04:22;85.80;;;22.45;;
4049;SDS011;2039;50.894;6.888;2023-03-26T19:06:52;77.63;;;20.05;;
4049;SDS011;2039;50.894;6.888;2023-03-26T19:09:22;81.72;;;20.33;;
4049;SDS011;2039;50.894;6.888;2023-03-26T19:11:53;82.90;;;22.38;;
4049;SDS011;2039;50.894;6.888;2023-03-26T19:17:18;82.40;;;19.35;;
4049;SDS011;2039;50.894;6.888;2023-03-26T19:19:45;81.35;;;22.25;;
4049;SDS011;2039;50.894;6.888;2023-03-26T19:22:13;81.57;;;19.80;;
4049;SDS011;2039;50.894;6.888;2023-03-26T19:24:40;83.53;;;18.77;;
4049;SDS011;2039;50.894;6.888;2023-03-26T19:27:06;84.67;;;20.17;;
4049;SDS011;2039;50.894;6.888;2023-03-26T19:29:32;82.15;;;21.17;;
4049;SDS011;2039;50.894;6.888;2023-03-26T19:32:04;86.78;;;21.42;;
4049;SDS011;2039;50.894;6.888;2023-03-26T19:34:40;79.82;;;16.42;;
4049;SDS011;2039;50.894;6.888;2023-03-26T19:37:21;84.88;;;22.52;;
4049;SDS011;2039;50.894;6.888;2023-03-26T19:40:10;85.85;;;16.52;;
4049;SDS011;2039;50.894;6.888;2023-03-26T19:42:38;88.70;;;18.77;;
4049;SDS011;2039;50.894;6.888;2023-03-26T19:45:08;79.18;;;19.15;;
4049;SDS011;2039;50.894;6.888;2023-03-26T19:47:46;78.25;;;19.02;;
4049;SDS011;2039;50.894;6.888;2023-03-26T19:52:47;74.65;;;13.10;;
4049;SDS011;2039;50.894;6.888;2023-03-26T19:56:43;73.07;;;11.80;;
4049;SDS011;2039;50.894;6.888;2023-03-26T19:58:42;72.40;;;11.57;;
4049;SDS011;2039;50.894;6.888;2023-03-26T20:01:18;76.65;;;10.13;;
4049;SDS011;2039;50.894;6.888;2023-03-26T20:03:50;78.63;;;14.70;;
4049;SDS011;2039;50.894;6.888;2023-03-26T20:06:20;76.22;;;14.55;;
4049;SDS011;2039;50.894;6.888;2023-03-26T20:08:49;74.63;;;15.52;;
4049;SDS011;2039;50.894;6.888;2023-03-26T20:11:27;71.10;;;13.43;;
4049;SDS011;2039;50.894;6.888;2023-03-26T20:13:57;78.63;;;13.20;;
4049;SDS011;2039;50.894;6.888;2023-03-26T20:16:30;73.47;;;15.60;;
4049;SDS011;2039;50.894;6.888;2023-03-26T20:18:58;77.72;;;12.70;;
4049;SDS011;2039;50.894;6.888;2023-03-26T20:21:28;74.90;;;14.38;;
4049;SDS011;2039;50.894;6.888;2023-03-26T20:24:12;73.63;;;13.13;;
4049;SDS011;2039;50.894;6.888;2023-03-26T20:26:40;75.85;;;13.23;;
4049;SDS011;2039;50.894;6.888;2023-03-26T20:29:06;71.93;;;14.13;;
4049;SDS011;2039;50.894;6.888;2023-03-26T20:31:32;74.90;;;15.23;;
4049;SDS011;2039;50.894;6.888;2023-03-26T20:34:04;78.85;;;14.82;;
4049;SDS011;2039;50.894;6.888;2023-03-26T20:36:38;77.57;;;19.05;;
4049;SDS011;2039;50.894;6.888;2023-03-26T20:39:04;79.90;;;14.40;;
4049;SDS011;2039;50.894;6.888;2023-03-26T20:41:29;88.77;;;15.87;;
4049;SDS011;2039;50.894;6.888;2023-03-26T20:43:55;72.40;;;12.57;;
4049;SDS011;2039;50.894;6.888;2023-03-26T20:46:22;74.17;;;10.23;;
4049;SDS011;2039;50.894;6.888;2023-03-26T20:48:49;75.38;;;9.15;;
4049;SDS011;2039;50.894;6.888;2023-03-26T20:51:16;69.40;;;7.30;;
4049;SDS011;2039;50.894;6.888;2023-03-26T20:53:44;75.40;;;11.43;;
4049;SDS011;2039;50.894;6.888;2023-03-26T20:56:16;74.22;;;7.40;;
4049;SDS011;2039;50.894;6.888;2023-03-26T20:58:43;70.43;;;7.15;;
4049;SDS011;2039;50.894;6.888;2023-03-26T21:01:10;72.63;;;6.93;;
4049;SDS011;2039;50.894;6.888;2023-03-26T21:03:37;70.25;;;7.13;;
4049;SDS011;2039;50.894;6.888;2023-03-26T21:06:05;74.05;;;8.23;;
4049;SDS011;2039;50.894;6.888;2023-03-26T21:08:39;68.72;;;6.88;;
4049;SDS011;2039;50.894;6.888;2023-03-26T21:11:16;81.55;;;8.90;;
4049;SDS011;2039;50.894;6.888;2023-03-26T21:16:47;77.47;;;7.68;;
4049;SDS011;2039;50.894;6.888;2023-03-26T21:19:13;70.07;;;6.78;;
4049;SDS011;2039;50.894;6.888;2023-03-26T21:29:14;85.68;;;6.85;;
4049;SDS011;2039;50.894;6.888;2023-03-26T21:31:42;77.20;;;6.60;;
4049;SDS011;2039;50.894;6.888;2023-03-26T21:34:11;69.55;;;5.68;;
4049;SDS011;2039;50.894;6.888;2023-03-26T21:36:40;87.00;;;7.20;;
4049;SDS011;2039;50.894;6.888;2023-03-26T21:39:08;71.55;;;5.55;;
4049;SDS011;2039;50.894;6.888;2023-03-26T21:44:12;69.45;;;5.05;;
4049;SDS011;2039;50.894;6.888;2023-03-26T21:46:46;74.82;;;7.53;;